Time;durP1;ratioP1;P1;durP2;ratioP2;P2;SDS_P1;SDS_P2;PMS_P1;PMS_P2;Temp;Humidity;BMP_temperature;BMP_pressure;BME280_temperature;BME280_humidity;BME280_pressure;Samples;Min_cycle;Max_cycle;Signal;HPM_P1;HPM_P2
2021/11/10 00:02:11;;;;;;;31.05;10.38;;;4.40;99.90;;;;;;5030085;28;20036;-85
2021/11/10 00:04:37;;;;;;;25.30;11.18;;;4.40;99.90;;;;;;5033826;28;20049;-85
2021/11/10 00:07:02;;;;;;;23.50;11.35;;;4.30;99.90;;;;;;5033686;28;20022;-85
2021/11/10 00:09:28;;;;;;;32.65;12.43;;;4.30;99.90;;;;;;5029800;28;20489;-85
2021/11/10 00:11:54;;;;;;;27.30;11.18;;;4.30;99.90;;;;;;5025346;28;20282;-85
2021/11/10 00:14:20;;;;;;;33.35;11.07;;;4.20;99.90;;;;;;5030500;28;20030;-85
2021/11/10 00:16:46;;;;;;;36.85;11.85;;;4.20;99.90;;;;;;5033878;28;20017;-85
2021/11/10 00:19:12;;;;;;;33.70;12.85;;;4.10;99.90;;;;;;5034410;28;20400;-86
2021/11/10 00:21:37;;;;;;;26.25;11.95;;;4.10;99.90;;;;;;5022515;28;20117;-86
2021/11/10 00:24:03;;;;;;;24.20;11.00;;;4.00;99.90;;;;;;5031680;28;20057;-85
2021/11/10 00:26:29;;;;;;;32.65;12.68;;;4.00;99.90;;;;;;5025777;28;20535;-85
2021/11/10 00:28:55;;;;;;;24.52;11.88;;;4.00;99.90;;;;;;5032086;28;20025;-85
2021/11/10 00:31:21;;;;;;;31.27;11.90;;;3.90;99.90;;;;;;5028442;28;20029;-85
2021/11/10 00:33:48;;;;;;;30.95;13.00;;;3.90;99.90;;;;;;5034037;28;20371;-85
2021/11/10 00:36:15;;;;;;;33.22;13.45;;;3.90;99.90;;;;;;5031122;28;20029;-85
2021/11/10 00:38:41;;;;;;;28.55;12.80;;;3.90;99.90;;;;;;5032447;28;20026;-85
2021/11/10 00:41:07;;;;;;;38.47;13.38;;;3.80;99.90;;;;;;5029588;28;20091;-85
2021/11/10 00:43:33;;;;;;;37.53;13.57;;;3.90;99.90;;;;;;5024277;28;20034;-85
2021/11/10 00:45:59;;;;;;;29.60;13.20;;;3.80;99.90;;;;;;5024926;28;20029;-85
2021/11/10 00:48:25;;;;;;;31.95;13.88;;;3.80;99.90;;;;;;5031902;28;20033;-85
2021/11/10 00:50:51;;;;;;;27.70;13.00;;;3.80;99.90;;;;;;5032654;28;20084;-85
2021/11/10 00:53:16;;;;;;;24.77;12.98;;;3.80;99.90;;;;;;5024490;28;20510;-85
2021/11/10 00:55:43;;;;;;;37.55;12.93;;;3.70;99.90;;;;;;5031373;28;20477;-87
2021/11/10 00:58:10;;;;;;;30.08;12.30;;;3.80;99.90;;;;;;5033491;28;20029;-87
2021/11/10 01:00:37;;;;;;;28.50;12.32;;;3.60;99.90;;;;;;5044710;28;20484;-87
2021/11/10 01:03:04;;;;;;;29.45;12.70;;;3.60;99.90;;;;;;5024783;28;20029;-86
2021/11/10 01:05:31;;;;;;;23.42;11.80;;;3.60;99.90;;;;;;5038875;28;20563;-86
2021/11/10 01:07:56;;;;;;;26.58;12.02;;;3.60;99.90;;;;;;5035112;28;20021;-87
2021/11/10 01:10:23;;;;;;;29.88;11.77;;;3.50;99.90;;;;;;5034041;28;20052;-86
2021/11/10 01:12:50;;;;;;;30.83;12.30;;;3.50;99.90;;;;;;5034686;28;20473;-86
2021/11/10 01:15:16;;;;;;;29.45;11.80;;;3.50;99.90;;;;;;5033369;28;20029;-87
2021/11/10 01:17:42;;;;;;;27.15;13.02;;;3.40;99.90;;;;;;5039648;28;20038;-86
2021/11/10 01:20:09;;;;;;;29.80;12.18;;;3.40;99.90;;;;;;5032773;28;20033;-86
2021/11/10 01:22:35;;;;;;;30.15;14.18;;;3.40;99.90;;;;;;5032421;28;20037;-86
2021/11/10 01:25:03;;;;;;;33.10;13.73;;;3.40;99.90;;;;;;5032086;28;20443;-86
2021/11/10 01:27:29;;;;;;;39.80;15.20;;;3.40;99.90;;;;;;5027261;28;20436;-86
2021/11/10 01:29:54;;;;;;;28.13;13.65;;;3.40;99.90;;;;;;5035035;28;20029;-86
2021/11/10 01:32:20;;;;;;;28.42;12.10;;;3.40;99.90;;;;;;5023665;28;20060;-86
2021/11/10 01:34:46;;;;;;;47.78;13.80;;;3.30;99.90;;;;;;5047375;28;20025;-86
2021/11/10 01:37:12;;;;;;;36.65;13.80;;;3.30;99.90;;;;;;5028454;28;20115;-86
2021/11/10 01:39:37;;;;;;;21.23;11.35;;;3.20;99.90;;;;;;5034510;28;20041;-86
2021/11/10 01:42:05;;;;;;;16.77;9.55;;;3.20;99.90;;;;;;5025677;28;20025;-86
2021/11/10 01:44:33;;;;;;;19.67;9.85;;;3.10;99.90;;;;;;5032100;28;20048;-86
2021/11/10 01:47:03;;;;;;;26.75;12.80;;;3.10;99.90;;;;;;5046125;28;20085;-86
2021/11/10 01:49:28;;;;;;;30.45;12.38;;;3.00;99.90;;;;;;5032129;28;20039;-86
2021/11/10 01:51:56;;;;;;;25.15;11.65;;;3.10;99.90;;;;;;5050459;28;20474;-86
2021/11/10 01:54:26;;;;;;;26.35;13.20;;;3.00;99.90;;;;;;5050738;28;20056;-86
2021/11/10 01:56:54;;;;;;;32.97;14.88;;;3.10;99.90;;;;;;5034595;28;20049;-86
2021/11/10 01:59:44;;;;;;;36.90;14.32;;;3.10;99.90;;;;;;5039875;28;20112;-87
2021/11/10 02:02:23;;;;;;;32.88;14.60;;;3.10;99.90;;;;;;5050489;28;20037;-87
2021/11/10 02:04:49;;;;;;;31.30;13.75;;;3.20;99.90;;;;;;5051584;28;20054;-87
2021/11/10 02:07:18;;;;;;;38.53;14.73;;;3.20;99.90;;;;;;5034844;28;20121;-86
2021/11/10 02:09:45;;;;;;;34.75;15.30;;;3.20;99.90;;;;;;5034343;28;20108;-87
2021/11/10 02:12:11;;;;;;;30.95;14.93;;;3.20;99.90;;;;;;5034997;28;20029;-86
2021/11/10 02:14:38;;;;;;;32.53;15.10;;;3.20;99.90;;;;;;5030238;28;20488;-87
2021/11/10 02:17:05;;;;;;;36.63;15.77;;;3.20;99.90;;;;;;5042093;28;20029;-87
2021/11/10 02:19:32;;;;;;;32.28;14.10;;;3.20;99.90;;;;;;5032956;28;20028;-87
2021/11/10 02:21:58;;;;;;;35.22;15.38;;;3.20;99.90;;;;;;5045058;28;20056;-87
2021/11/10 02:24:26;;;;;;;31.27;14.48;;;3.20;99.90;;;;;;5043250;28;20128;-87
2021/11/10 02:26:52;;;;;;;33.83;15.23;;;3.20;99.90;;;;;;5033322;28;20057;-87
2021/11/10 02:29:21;;;;;;;31.95;15.38;;;3.20;99.90;;;;;;5048241;28;20024;-86
2021/11/10 02:31:48;;;;;;;28.73;14.52;;;3.30;99.90;;;;;;5042944;28;20044;-87
2021/11/10 02:34:14;;;;;;;33.63;14.32;;;3.30;99.90;;;;;;5030871;28;20036;-87
2021/11/10 02:36:40;;;;;;;34.28;15.27;;;3.30;99.90;;;;;;5033673;28;20021;-86
2021/11/10 02:39:10;;;;;;;30.85;14.80;;;3.20;99.90;;;;;;5025166;28;20033;-86
2021/11/10 02:41:38;;;;;;;31.33;14.57;;;3.20;99.90;;;;;;5042732;28;20023;-86
2021/11/10 02:44:06;;;;;;;28.83;14.30;;;3.30;99.90;;;;;;5025481;28;20060;-86
2021/11/10 02:46:32;;;;;;;34.90;14.60;;;3.20;99.90;;;;;;5049157;28;20485;-87
2021/11/10 02:48:58;;;;;;;37.88;15.65;;;3.20;99.90;;;;;;5026593;28;20074;-86
2021/11/10 02:51:24;;;;;;;27.17;13.77;;;3.20;99.90;;;;;;5030973;28;20020;-86
2021/11/10 02:53:50;;;;;;;33.88;14.77;;;3.20;99.90;;;;;;5027009;28;20025;-86
2021/11/10 02:56:15;;;;;;;26.23;14.15;;;3.20;99.90;;;;;;5023504;28;20068;-86
2021/11/10 02:58:41;;;;;;;30.83;14.23;;;3.20;99.90;;;;;;5021994;28;20120;-86
2021/11/10 03:01:07;;;;;;;34.53;14.43;;;3.20;99.90;;;;;;5033256;28;20090;-86
2021/11/10 03:03:34;;;;;;;32.45;14.77;;;3.20;99.90;;;;;;5034004;28;20503;-86
2021/11/10 03:06:00;;;;;;;28.75;14.27;;;3.20;99.90;;;;;;5033049;28;20489;-86
2021/11/10 03:08:25;;;;;;;31.08;14.80;;;3.10;99.90;;;;;;5024882;28;20104;-87
2021/11/10 03:10:51;;;;;;;34.25;13.98;;;3.10;99.90;;;;;;5032883;28;20480;-86
2021/11/10 03:13:17;;;;;;;29.58;14.38;;;3.20;99.90;;;;;;5035431;28;20025;-86
2021/11/10 03:15:45;;;;;;;37.38;15.75;;;3.10;99.90;;;;;;5037014;28;20576;-87
2021/11/10 03:18:11;;;;;;;29.23;13.88;;;3.10;99.90;;;;;;5031313;28;20049;-87
2021/11/10 03:20:37;;;;;;;29.20;14.02;;;3.10;99.90;;;;;;5063575;28;20029;-86
2021/11/10 03:23:04;;;;;;;32.08;13.90;;;3.10;99.90;;;;;;5048226;28;20546;-87
2021/11/10 03:25:30;;;;;;;38.00;13.68;;;3.10;99.90;;;;;;5036153;28;20048;-86
2021/11/10 03:27:56;;;;;;;36.25;13.55;;;3.10;99.90;;;;;;5038927;28;20021;-86
2021/11/10 03:30:21;;;;;;;27.27;12.82;;;3.10;99.90;;;;;;5032539;28;20025;-87
2021/11/10 03:32:47;;;;;;;26.23;13.10;;;3.00;99.90;;;;;;5026888;28;20035;-87
2021/11/10 03:35:13;;;;;;;32.10;13.82;;;3.00;99.90;;;;;;5034847;28;20060;-87
2021/11/10 03:37:39;;;;;;;32.75;14.95;;;3.00;99.90;;;;;;5036226;28;20029;-86
2021/11/10 03:40:06;;;;;;;28.55;13.40;;;3.00;99.90;;;;;;5029354;28;20124;-86
2021/11/10 03:42:32;;;;;;;31.05;14.25;;;3.00;99.90;;;;;;5054307;28;20055;-87
2021/11/10 03:44:58;;;;;;;34.38;14.75;;;2.90;99.90;;;;;;5026624;28;20036;-86
2021/11/10 03:47:23;;;;;;;32.65;13.60;;;3.00;99.90;;;;;;5022914;28;20489;-86
2021/11/10 03:49:49;;;;;;;29.15;13.48;;;2.90;99.90;;;;;;5029277;28;20026;-87
2021/11/10 03:52:15;;;;;;;29.73;14.15;;;2.90;99.90;;;;;;5025727;28;20443;-87
2021/11/10 03:54:44;;;;;;;32.90;13.68;;;2.90;99.90;;;;;;5043503;28;20033;-86
2021/11/10 03:57:10;;;;;;;30.75;13.38;;;2.90;99.90;;;;;;5034779;28;20047;-86
2021/11/10 03:59:37;;;;;;;29.52;13.35;;;2.90;99.90;;;;;;5028167;28;20041;-86
2021/11/10 04:02:04;;;;;;;25.23;12.85;;;2.90;99.90;;;;;;5032238;28;20056;-86
2021/11/10 04:04:29;;;;;;;34.15;13.65;;;2.90;99.90;;;;;;5033442;28;20051;-86
2021/11/10 04:06:55;;;;;;;30.20;14.60;;;2.90;99.90;;;;;;5035386;28;20028;-86
2021/11/10 04:09:20;;;;;;;34.42;13.95;;;2.90;99.90;;;;;;5036498;28;20104;-87
2021/11/10 04:11:46;;;;;;;32.53;14.82;;;2.90;99.90;;;;;;5036202;28;20098;-87
2021/11/10 04:14:11;;;;;;;30.92;13.48;;;2.80;99.90;;;;;;5035807;28;20111;-87
2021/11/10 04:16:37;;;;;;;34.10;14.65;;;2.80;99.90;;;;;;5036433;28;20021;-87
2021/11/10 04:19:03;;;;;;;29.50;13.88;;;2.90;99.90;;;;;;5036418;28;20082;-86
2021/11/10 04:21:29;;;;;;;27.65;13.30;;;2.90;99.90;;;;;;5036921;28;20029;-86
2021/11/10 04:23:56;;;;;;;29.38;14.02;;;2.90;99.90;;;;;;5038701;28;20028;-87
2021/11/10 04:26:23;;;;;;;34.33;14.35;;;2.80;99.90;;;;;;5031673;28;20056;-87
2021/11/10 04:28:49;;;;;;;34.42;14.90;;;2.80;99.90;;;;;;5032201;28;20077;-87
2021/11/10 04:31:14;;;;;;;42.30;15.23;;;2.80;99.90;;;;;;5046898;28;20025;-87
2021/11/10 04:33:42;;;;;;;28.85;14.70;;;2.80;99.90;;;;;;5022139;28;20028;-87
2021/11/10 04:36:08;;;;;;;33.22;14.57;;;2.80;99.90;;;;;;5029863;28;20507;-87
2021/11/10 04:38:33;;;;;;;29.92;13.82;;;2.80;99.90;;;;;;5029701;28;20033;-87
2021/11/10 04:40:59;;;;;;;36.53;15.90;;;2.70;99.90;;;;;;5025772;28;20017;-87
2021/11/10 04:43:24;;;;;;;26.38;14.18;;;2.70;99.90;;;;;;5042611;28;20052;-87
2021/11/10 04:45:59;;;;;;;30.67;14.73;;;2.70;99.90;;;;;;5035112;28;20036;-87
2021/11/10 04:48:24;;;;;;;33.78;15.65;;;2.70;99.90;;;;;;5036135;28;20021;-87
2021/11/10 04:50:50;;;;;;;33.17;14.07;;;2.80;99.90;;;;;;5036666;28;20032;-88
2021/11/10 04:53:16;;;;;;;29.50;13.25;;;2.70;99.90;;;;;;5033107;28;20023;-87
2021/11/10 04:55:43;;;;;;;39.88;17.25;;;2.80;99.90;;;;;;5034915;28;20039;-87
2021/11/10 04:58:08;;;;;;;37.03;15.50;;;2.70;99.90;;;;;;5036178;28;20028;-87
2021/11/10 05:00:34;;;;;;;35.10;15.48;;;2.70;99.90;;;;;;5029880;28;20038;-87
2021/11/10 05:02:59;;;;;;;32.83;15.60;;;2.80;99.90;;;;;;5033787;28;20091;-87
2021/11/10 05:05:25;;;;;;;34.90;15.82;;;2.70;99.90;;;;;;5032904;28;20523;-87
2021/11/10 05:07:51;;;;;;;41.42;16.45;;;2.70;99.90;;;;;;5029529;28;20052;-87
2021/11/10 05:10:17;;;;;;;32.78;15.93;;;2.70;99.90;;;;;;5026763;28;20036;-87
2021/11/10 05:12:43;;;;;;;30.35;15.90;;;2.70;99.90;;;;;;5018536;28;20030;-87
2021/11/10 05:15:11;;;;;;;34.42;15.82;;;2.70;99.90;;;;;;5025787;28;20110;-87
2021/11/10 05:17:37;;;;;;;38.13;15.82;;;2.70;99.90;;;;;;5036531;28;20023;-87
2021/11/10 05:20:04;;;;;;;35.00;16.45;;;2.70;99.90;;;;;;5024451;28;20025;-87
2021/11/10 05:22:29;;;;;;;34.70;14.57;;;2.70;99.90;;;;;;5035014;28;20021;-88
2021/11/10 05:24:55;;;;;;;37.80;15.40;;;2.70;99.90;;;;;;5034696;28;20087;-86
2021/11/10 05:27:20;;;;;;;32.90;15.65;;;2.70;99.90;;;;;;5025640;28;20040;-87
2021/11/10 05:29:46;;;;;;;26.95;15.07;;;2.60;99.90;;;;;;5053936;28;20051;-87
2021/11/10 05:32:12;;;;;;;33.53;15.93;;;2.60;99.90;;;;;;5029358;28;20025;-87
2021/11/10 05:34:38;;;;;;;33.63;15.55;;;2.60;99.90;;;;;;5032274;28;20029;-87
2021/11/10 05:37:04;;;;;;;36.00;16.23;;;2.60;99.90;;;;;;5035430;28;20040;-87
2021/11/10 05:39:29;;;;;;;35.55;15.68;;;2.60;99.90;;;;;;5029612;28;20029;-86
2021/11/10 05:41:55;;;;;;;36.97;15.63;;;2.60;99.90;;;;;;5036275;28;20488;-87
2021/11/10 05:44:21;;;;;;;32.47;15.82;;;2.60;99.90;;;;;;5034567;28;20041;-87
2021/11/10 05:46:46;;;;;;;32.20;16.02;;;2.60;99.90;;;;;;5031452;28;20091;-87
2021/11/10 05:49:12;;;;;;;33.33;15.95;;;2.60;99.90;;;;;;5035567;28;20024;-87
2021/11/10 05:51:37;;;;;;;42.17;16.52;;;2.50;99.90;;;;;;5031593;28;20079;-87
2021/11/10 05:54:04;;;;;;;35.35;15.60;;;2.50;99.90;;;;;;5021686;28;20028;-87
2021/11/10 05:56:33;;;;;;;32.50;15.85;;;2.60;99.90;;;;;;5049092;28;20021;-87
2021/11/10 05:58:59;;;;;;;37.85;16.40;;;2.50;99.90;;;;;;5036040;28;20119;-87
2021/11/10 06:01:26;;;;;;;45.53;16.88;;;2.50;99.90;;;;;;5034926;28;20033;-87
2021/11/10 06:03:52;;;;;;;41.83;15.40;;;2.50;99.90;;;;;;5029407;28;20031;-87
2021/11/10 06:06:18;;;;;;;40.03;16.98;;;2.50;99.90;;;;;;5038826;28;20056;-87
2021/11/10 06:08:43;;;;;;;32.35;17.00;;;2.50;99.90;;;;;;5034612;28;20056;-87
2021/11/10 06:11:10;;;;;;;39.58;17.02;;;2.50;99.90;;;;;;5033507;28;20597;-87
2021/11/10 06:13:37;;;;;;;40.08;20.90;;;2.40;99.90;;;;;;5035223;28;20029;-87
2021/11/10 06:16:04;;;;;;;36.25;17.20;;;2.40;99.90;;;;;;5035643;28;20032;-87
2021/11/10 06:18:30;;;;;;;32.60;16.58;;;2.40;99.90;;;;;;5036033;28;20098;-86
2021/11/10 06:20:57;;;;;;;32.55;16.33;;;2.40;99.90;;;;;;5037912;28;20025;-88
2021/11/10 06:23:22;;;;;;;36.58;16.15;;;2.40;99.90;;;;;;5037446;28;20021;-87
2021/11/10 06:25:48;;;;;;;37.25;16.23;;;2.40;99.90;;;;;;5037320;28;20405;-87
2021/11/10 06:28:14;;;;;;;34.55;16.45;;;2.40;99.90;;;;;;5033163;28;20032;-88
2021/11/10 06:30:40;;;;;;;38.13;16.92;;;2.30;99.90;;;;;;5035614;28;20029;-88
2021/11/10 06:33:05;;;;;;;38.30;15.50;;;2.40;99.90;;;;;;5034970;28;20116;-88
2021/11/10 06:35:31;;;;;;;32.78;17.02;;;2.40;99.90;;;;;;5032185;28;20908;-88
2021/11/10 06:37:56;;;;;;;34.50;17.58;;;2.40;99.90;;;;;;5033724;28;20029;-87
2021/11/10 06:40:22;;;;;;;39.90;16.00;;;2.40;99.90;;;;;;5034881;28;20376;-87
2021/11/10 06:42:48;;;;;;;39.03;17.52;;;2.40;99.90;;;;;;5035832;28;20035;-87
2021/11/10 06:45:13;;;;;;;33.55;15.98;;;2.40;99.90;;;;;;5034568;28;20041;-88
2021/11/10 06:47:39;;;;;;;35.25;15.55;;;2.30;99.90;;;;;;5028735;28;20021;-88
2021/11/10 06:50:06;;;;;;;43.65;16.35;;;2.30;99.90;;;;;;5034937;28;20476;-88
2021/11/10 06:52:31;;;;;;;30.25;14.63;;;2.30;99.90;;;;;;5029613;28;20214;-87
2021/11/10 06:54:57;;;;;;;32.95;16.20;;;2.30;99.90;;;;;;5034417;28;20029;-86
2021/11/10 06:57:25;;;;;;;32.00;16.33;;;2.30;99.90;;;;;;5037263;28;20381;-87
2021/11/10 06:59:50;;;;;;;33.22;16.40;;;2.30;99.90;;;;;;5030657;28;20072;-86
2021/11/10 07:02:16;;;;;;;45.95;18.15;;;2.30;99.90;;;;;;5043579;28;20432;-86
2021/11/10 07:04:42;;;;;;;36.53;15.77;;;2.30;99.90;;;;;;5032423;28;20033;-87
2021/11/10 07:07:08;;;;;;;38.22;16.75;;;2.30;99.90;;;;;;5024763;28;20497;-87
2021/11/10 07:09:33;;;;;;;36.42;16.33;;;2.30;99.90;;;;;;5035136;28;20048;-86
2021/11/10 07:11:59;;;;;;;41.38;16.67;;;2.30;99.90;;;;;;5033179;28;20071;-87
2021/11/10 07:14:26;;;;;;;35.30;15.73;;;2.30;99.90;;;;;;5030832;28;20021;-86
2021/11/10 07:16:52;;;;;;;46.38;17.65;;;2.20;99.90;;;;;;5035379;28;20036;-87
2021/11/10 07:19:17;;;;;;;37.58;15.98;;;2.20;99.90;;;;;;5034659;28;20473;-86
2021/11/10 07:21:43;;;;;;;35.80;16.55;;;2.20;99.90;;;;;;5034153;28;20476;-86
2021/11/10 07:24:09;;;;;;;34.97;17.35;;;2.20;99.90;;;;;;5032493;28;20501;-86
2021/11/10 07:26:35;;;;;;;34.85;17.40;;;2.20;99.90;;;;;;5043640;28;20070;-86
2021/11/10 07:29:01;;;;;;;36.00;17.40;;;2.20;99.90;;;;;;5035326;28;20059;-86
2021/11/10 07:31:26;;;;;;;33.40;17.13;;;2.30;99.90;;;;;;5043892;28;20047;-87
2021/11/10 07:33:52;;;;;;;34.10;17.58;;;2.30;99.90;;;;;;5034965;28;20036;-87
2021/11/10 07:36:18;;;;;;;30.88;16.20;;;2.30;99.90;;;;;;5039231;28;20029;-87
2021/11/10 07:38:43;;;;;;;37.00;17.55;;;2.40;99.90;;;;;;5046510;28;20059;-87
2021/11/10 07:41:13;;;;;;;33.35;16.52;;;2.50;99.90;;;;;;5048220;28;20025;-87
2021/11/10 07:43:39;;;;;;;43.72;19.52;;;2.50;99.90;;;;;;5044260;28;20033;-87
2021/11/10 07:46:12;;;;;;;37.92;18.05;;;2.60;99.90;;;;;;5035081;28;20044;-87
2021/11/10 07:48:40;;;;;;;37.75;17.08;;;2.60;99.90;;;;;;5051846;28;20060;-87
2021/11/10 07:51:06;;;;;;;44.60;19.02;;;2.70;99.90;;;;;;5053609;28;20029;-87
2021/11/10 07:53:31;;;;;;;39.97;19.30;;;2.80;99.90;;;;;;5033714;28;20437;-86
2021/11/10 07:55:57;;;;;;;30.40;17.02;;;2.80;99.90;;;;;;5030528;28;20021;-87
2021/11/10 07:58:22;;;;;;;35.65;17.67;;;2.90;99.90;;;;;;5029196;28;20040;-86
2021/11/10 08:00:48;;;;;;;42.75;17.35;;;3.00;99.90;;;;;;5035630;28;20041;-86
2021/11/10 08:03:14;;;;;;;38.25;17.90;;;3.10;99.90;;;;;;5031864;28;20029;-86
2021/11/10 08:05:39;;;;;;;39.13;17.42;;;3.20;99.90;;;;;;5036634;28;20105;-88
2021/11/10 08:08:05;;;;;;;44.83;18.75;;;3.30;99.90;;;;;;5051232;28;20056;-88
2021/11/10 08:10:31;;;;;;;35.97;17.80;;;3.40;99.90;;;;;;5045601;28;20040;-87
2021/11/10 08:12:56;;;;;;;36.22;16.83;;;3.50;99.90;;;;;;5034380;28;20089;-88
2021/11/10 08:15:22;;;;;;;38.88;17.50;;;3.70;99.90;;;;;;5036156;28;20464;-87
2021/11/10 08:17:48;;;;;;;30.88;15.70;;;3.80;99.90;;;;;;5042055;28;20048;-87
2021/11/10 08:20:18;;;;;;;36.75;16.92;;;4.00;99.90;;;;;;5046583;28;20598;-88
2021/11/10 08:22:45;;;;;;;31.30;15.68;;;4.10;99.90;;;;;;5045079;28;20021;-85
2021/11/10 08:25:13;;;;;;;29.60;15.60;;;4.20;99.90;;;;;;5040528;28;20405;-86
2021/11/10 08:27:40;;;;;;;37.40;15.13;;;4.30;99.90;;;;;;5041590;28;20032;-86
2021/11/10 08:30:09;;;;;;;30.45;15.02;;;4.40;99.90;;;;;;5043432;28;20063;-86
2021/11/10 08:32:34;;;;;;;33.45;16.67;;;4.50;99.90;;;;;;5028533;28;20108;-86
2021/11/10 08:35:02;;;;;;;30.25;14.68;;;4.60;99.90;;;;;;5036828;28;20083;-86
2021/11/10 08:37:27;;;;;;;34.35;15.75;;;4.70;99.90;;;;;;5043382;28;20468;-85
2021/11/10 08:39:53;;;;;;;27.63;14.88;;;4.70;99.90;;;;;;5045334;28;20083;-86
2021/11/10 08:42:22;;;;;;;53.70;15.77;;;4.90;99.90;;;;;;5036489;28;20028;-88
2021/11/10 08:44:51;;;;;;;36.40;16.20;;;5.00;99.90;;;;;;5030018;28;20037;-87
2021/11/10 08:47:19;;;;;;;39.55;16.83;;;5.00;99.90;;;;;;5039040;28;20025;-89
2021/11/10 08:49:46;;;;;;;29.83;15.30;;;5.20;99.90;;;;;;5042674;28;20025;-88
2021/11/10 08:52:12;;;;;;;27.83;13.98;;;5.20;99.90;;;;;;5051819;28;20392;-86
2021/11/10 08:54:37;;;;;;;25.75;14.00;;;5.30;99.90;;;;;;5034591;28;20128;-87
2021/11/10 08:57:03;;;;;;;24.30;14.40;;;5.40;99.90;;;;;;5023845;28;20502;-86
2021/11/10 08:59:30;;;;;;;31.55;16.10;;;5.50;99.90;;;;;;5032589;28;20048;-85
2021/11/10 09:01:57;;;;;;;36.08;15.80;;;5.60;99.90;;;;;;5037503;28;20025;-86
2021/11/10 09:04:23;;;;;;;30.38;15.18;;;5.70;99.90;;;;;;5030133;28;20032;-87
2021/11/10 09:06:49;;;;;;;30.92;15.50;;;5.80;99.90;;;;;;5056327;28;20550;-88
2021/11/10 09:09:16;;;;;;;26.98;14.63;;;5.90;99.90;;;;;;5038309;28;20025;-88
2021/11/10 09:11:43;;;;;;;32.35;15.95;;;6.00;99.90;;;;;;5035031;28;20029;-87
2021/11/10 09:14:08;;;;;;;33.60;16.55;;;6.00;99.90;;;;;;5021131;28;20029;-87
2021/11/10 09:16:34;;;;;;;32.65;15.32;;;6.10;99.90;;;;;;5038747;28;20017;-87
2021/11/10 09:19:00;;;;;;;29.52;15.05;;;6.10;99.90;;;;;;5038743;28;20048;-85
2021/11/10 09:21:28;;;;;;;24.10;14.73;;;6.10;99.90;;;;;;5055905;28;20036;-85
2021/11/10 09:23:53;;;;;;;28.02;15.30;;;6.20;99.90;;;;;;5055935;28;20104;-86
2021/11/10 09:26:19;;;;;;;27.02;14.48;;;6.20;99.90;;;;;;5054655;28;20603;-87
2021/11/10 09:28:45;;;;;;;32.83;14.52;;;6.40;99.90;;;;;;5029800;28;20021;-86
2021/11/10 09:31:10;;;;;;;28.52;14.73;;;6.40;99.90;;;;;;5020792;28;20040;-87
2021/11/10 09:33:40;;;;;;;31.25;14.27;;;6.50;99.90;;;;;;5022294;28;20367;-87
2021/11/10 09:36:06;;;;;;;28.13;13.88;;;6.60;99.90;;;;;;5030454;28;20488;-88
2021/11/10 09:38:32;;;;;;;26.13;15.90;;;6.70;99.90;;;;;;5017690;28;20116;-87
2021/11/10 09:41:01;;;;;;;29.00;15.60;;;6.70;99.90;;;;;;5032411;28;20103;-86
2021/11/10 09:43:44;;;;;;;28.30;14.90;;;6.90;99.90;;;;;;5033886;28;20033;-87
2021/11/10 09:46:12;;;;;;;33.63;14.63;;;7.00;99.90;;;;;;5037166;28;20044;-87
2021/11/10 09:48:45;;;;;;;24.85;13.40;;;7.00;99.90;;;;;;5027813;28;20013;-87
2021/11/10 09:51:15;;;;;;;29.15;14.73;;;7.10;99.90;;;;;;5028431;28;20099;-87
2021/11/10 09:53:41;;;;;;;29.80;13.90;;;7.30;99.90;;;;;;5037280;28;20036;-87
2021/11/10 09:56:08;;;;;;;26.13;13.93;;;7.30;99.90;;;;;;5051868;28;20029;-87
2021/11/10 09:58:34;;;;;;;27.23;13.82;;;7.50;99.90;;;;;;5023332;28;20044;-85
2021/11/10 10:01:08;;;;;;;28.85;13.93;;;7.50;99.90;;;;;;5028481;28;20049;-86
2021/11/10 10:03:35;;;;;;;28.40;13.95;;;7.70;99.90;;;;;;5051503;28;20156;-88
2021/11/10 10:06:02;;;;;;;33.45;13.30;;;7.80;99.90;;;;;;5026418;28;20048;-86
2021/11/10 10:08:28;;;;;;;24.00;12.70;;;7.90;99.90;;;;;;5028776;28;20030;-86
2021/11/10 10:10:54;;;;;;;29.73;13.35;;;8.00;99.90;;;;;;5047597;28;20056;-84
2021/11/10 10:13:24;;;;;;;31.15;13.98;;;8.10;99.90;;;;;;5023592;28;20078;-86
2021/11/10 10:15:52;;;;;;;26.10;13.55;;;8.20;99.90;;;;;;5035838;28;20063;-87
2021/11/10 10:18:29;;;;;;;27.40;13.45;;;8.20;99.90;;;;;;5036021;28;20051;-87
2021/11/10 10:21:04;;;;;;;24.80;12.95;;;8.30;99.90;;;;;;5034235;28;20025;-87
2021/11/10 10:23:42;;;;;;;29.33;12.95;;;8.40;99.90;;;;;;5033425;28;20029;-87
2021/11/10 10:26:16;;;;;;;24.20;12.05;;;8.50;99.90;;;;;;5034155;28;20068;-86
2021/11/10 10:28:44;;;;;;;28.70;12.18;;;8.60;99.90;;;;;;5035335;28;20063;-86
2021/11/10 10:31:20;;;;;;;22.63;12.32;;;8.60;99.90;;;;;;5039922;28;20039;-87
2021/11/10 10:33:52;;;;;;;23.92;12.73;;;8.70;99.90;;;;;;5034594;28;20025;-86
2021/11/10 10:36:40;;;;;;;21.27;11.95;;;8.70;99.90;;;;;;5034061;28;20064;-87
2021/11/10 10:39:14;;;;;;;22.05;11.05;;;8.80;99.90;;;;;;5034260;28;20029;-86
2021/11/10 10:41:43;;;;;;;19.88;11.50;;;8.80;99.90;;;;;;5020582;28;20029;-86
2021/11/10 10:44:15;;;;;;;24.55;12.65;;;8.90;99.90;;;;;;5047626;28;20031;-86
2021/11/10 10:46:44;;;;;;;26.95;12.60;;;8.90;99.90;;;;;;5042219;28;20083;-86
2021/11/10 10:49:17;;;;;;;25.50;11.77;;;9.00;99.90;;;;;;5039930;28;20123;-86
2021/11/10 10:51:54;;;;;;;25.33;12.13;;;9.00;99.90;;;;;;5035448;28;20060;-85
2021/11/10 10:54:27;;;;;;;23.55;11.98;;;9.00;99.90;;;;;;5039339;28;20105;-86
2021/11/10 10:56:55;;;;;;;24.85;11.88;;;9.00;99.90;;;;;;5023962;28;20021;-86
2021/11/10 10:59:26;;;;;;;28.05;11.95;;;8.90;99.90;;;;;;5047306;28;20052;-86
2021/11/10 11:02:07;;;;;;;24.38;12.30;;;9.00;99.90;;;;;;5034895;28;20031;-87
2021/11/10 11:04:34;;;;;;;22.90;11.80;;;9.00;99.90;;;;;;5031900;28;20021;-87
2021/11/10 11:07:05;;;;;;;24.92;12.25;;;9.10;99.90;;;;;;5053025;28;20116;-87
2021/11/10 11:09:34;;;;;;;29.50;12.35;;;9.20;99.90;;;;;;5032195;28;20025;-87
2021/11/10 11:12:11;;;;;;;20.40;12.00;;;9.30;99.90;;;;;;5026992;28;20028;-87
2021/11/10 11:14:48;;;;;;;19.90;12.63;;;9.40;99.90;;;;;;5036487;28;20496;-87
2021/11/10 11:17:30;;;;;;;28.15;12.00;;;9.40;99.90;;;;;;5035770;28;20025;-87
2021/11/10 11:20:20;;;;;;;28.58;11.88;;;9.50;99.90;;;;;;5037584;28;20025;-87
2021/11/10 11:22:46;;;;;;;22.60;11.43;;;9.50;99.90;;;;;;5031605;28;20025;-87
2021/11/10 11:25:13;;;;;;;29.27;12.30;;;9.50;99.90;;;;;;5018288;28;20034;-87
2021/11/10 11:27:52;;;;;;;25.77;12.48;;;9.60;99.90;;;;;;5027944;28;20025;-87
2021/11/10 11:30:18;;;;;;;24.35;12.40;;;9.70;99.90;;;;;;5032514;28;20041;-87
2021/11/10 11:32:46;;;;;;;23.77;12.32;;;9.80;99.90;;;;;;5021493;28;20091;-87
2021/11/10 11:35:22;;;;;;;27.20;12.20;;;9.80;99.90;;;;;;5037751;28;20021;-87
2021/11/10 11:37:48;;;;;;;24.45;12.45;;;9.90;99.90;;;;;;5030341;28;20021;-86
2021/11/10 11:40:19;;;;;;;25.45;13.13;;;9.90;99.90;;;;;;5037822;28;20021;-87
2021/11/10 11:42:46;;;;;;;30.73;12.90;;;10.00;99.90;;;;;;5038833;28;20366;-87
2021/11/10 11:45:15;;;;;;;29.55;13.50;;;10.00;99.90;;;;;;5031485;28;20044;-86
2021/11/10 11:47:42;;;;;;;30.00;13.38;;;10.10;99.90;;;;;;5034852;28;20025;-86
2021/11/10 11:50:09;;;;;;;29.90;11.73;;;10.10;99.90;;;;;;5037712;28;20025;-86
2021/11/10 11:52:36;;;;;;;26.35;12.35;;;10.10;99.90;;;;;;5025461;28;20017;-86
2021/11/10 11:55:21;;;;;;;24.77;13.63;;;10.10;99.90;;;;;;5023025;28;20087;-86
2021/11/10 11:57:51;;;;;;;22.35;12.55;;;10.10;99.90;;;;;;5027998;28;20435;-87
2021/11/10 12:00:23;;;;;;;28.15;12.50;;;10.10;99.90;;;;;;5035426;28;20048;-88
2021/11/10 12:02:50;;;;;;;24.35;12.35;;;10.10;99.90;;;;;;5036674;28;20053;-87
2021/11/10 12:05:23;;;;;;;26.45;13.15;;;10.20;99.90;;;;;;5033076;28;20045;-88
2021/11/10 12:07:57;;;;;;;20.42;12.32;;;10.20;99.90;;;;;;5038255;28;20093;-88
2021/11/10 12:10:22;;;;;;;26.95;12.07;;;10.40;99.90;;;;;;5049662;28;20087;-89
2021/11/10 12:13:08;;;;;;;27.10;12.38;;;10.40;99.90;;;;;;5037260;28;20025;-90
2021/11/10 12:16:06;;;;;;;24.55;12.70;;;10.60;99.90;;;;;;5047154;28;20034;-88
2021/11/10 12:18:48;;;;;;;20.67;11.32;;;10.80;99.90;;;;;;5034340;28;20067;-89
2021/11/10 12:21:19;;;;;;;24.15;11.98;;;10.90;99.90;;;;;;5037004;28;20029;-89
2021/11/10 12:23:53;;;;;;;30.67;12.77;;;11.10;99.90;;;;;;5038550;28;20017;-90
2021/11/10 12:26:20;;;;;;;23.85;11.43;;;11.30;99.90;;;;;;5044751;28;20041;-89
2021/11/10 12:28:55;;;;;;;24.65;11.65;;;11.50;99.90;;;;;;5047415;28;20060;-88
2021/11/10 12:31:33;;;;;;;25.42;12.88;;;11.80;99.90;;;;;;5039122;28;20036;-88
2021/11/10 12:34:00;;;;;;;27.02;12.48;;;12.00;99.90;;;;;;5039041;28;20025;-90
2021/11/10 12:36:47;;;;;;;21.33;12.15;;;12.00;99.90;;;;;;5038630;28;20025;-89
2021/11/10 12:39:12;;;;;;;25.60;13.52;;;12.00;99.90;;;;;;5038234;28;20067;-87